KRBO

Nueces County Airport

Robstown, Texas, USA
METAR KRBO 232255Z AUTO 11009KT 10SM SCT090 18/M05 A3023 RMK AO2 T01791048
Observed Flight Rules
Jan-23 @ 22:55 UTC (28 minutes ago) Visual Flight Rules
Wind Visibility Clouds
110° at 9 knots 10 miles
  • Scattered at 9,000' AGL
Temperatures Readings
Current 18°C / 64°F
Dewpoint -5°C / 23°F
Humidity 21%
Altimeter 30.23" Hg
Pressure 1024 hPa
Elevation 24
METAR KRBO 232255Z AUTO 11009KT 10SM SCT090 18/M05 A3023 RMK AO2 T01791048
Observed Flight Rules
Jan-23 @ 22:55 UTC
(28 minutes ago)
VFR
Wind Visibility
110° at 9 knots 10 miles
Clouds
  • Scattered at 9,000' AGL
Temperature Dewpoint
18°C / 64°F -5°C / 23°F
Humidity Altimeter Pressure
21% 30.23" Hg 1024 hPa